sensor_id;sensor_type;location;lat;lon;timestamp;P1;durP1;ratioP1;P2;durP2;ratioP2
31043;SDS011;17710;52.520;13.352;2023-08-06T00:02:18;8.43;;;7.45;;
31043;SDS011;17710;52.520;13.352;2023-08-06T00:04:45;10.82;;;7.70;;
31043;SDS011;17710;52.520;13.352;2023-08-06T00:07:11;8.93;;;7.55;;
31043;SDS011;17710;52.520;13.352;2023-08-06T00:09:39;10.75;;;8.27;;
31043;SDS011;17710;52.520;13.352;2023-08-06T00:12:05;11.38;;;7.47;;
31043;SDS011;17710;52.520;13.352;2023-08-06T00:14:32;8.82;;;7.40;;
31043;SDS011;17710;52.520;13.352;2023-08-06T00:16:59;7.78;;;6.88;;
31043;SDS011;17710;52.520;13.352;2023-08-06T00:19:25;7.95;;;7.05;;
31043;SDS011;17710;52.520;13.352;2023-08-06T00:21:51;10.90;;;7.25;;
31043;SDS011;17710;52.520;13.352;2023-08-06T00:24:18;7.32;;;6.38;;
31043;SDS011;17710;52.520;13.352;2023-08-06T00:26:45;10.93;;;7.03;;
31043;SDS011;17710;52.520;13.352;2023-08-06T00:29:12;7.85;;;6.72;;
31043;SDS011;17710;52.520;13.352;2023-08-06T00:31:38;8.65;;;7.07;;
31043;SDS011;17710;52.520;13.352;2023-08-06T00:34:04;8.95;;;6.43;;
31043;SDS011;17710;52.520;13.352;2023-08-06T00:36:31;9.57;;;7.10;;
31043;SDS011;17710;52.520;13.352;2023-08-06T00:38:57;7.88;;;6.30;;
31043;SDS011;17710;52.520;13.352;2023-08-06T00:41:23;9.30;;;6.25;;
31043;SDS011;17710;52.520;13.352;2023-08-06T00:43:51;10.18;;;6.50;;
31043;SDS011;17710;52.520;13.352;2023-08-06T00:46:17;7.97;;;5.88;;
31043;SDS011;17710;52.520;13.352;2023-08-06T00:48:44;7.15;;;6.22;;
31043;SDS011;17710;52.520;13.352;2023-08-06T00:51:10;7.78;;;6.53;;
31043;SDS011;17710;52.520;13.352;2023-08-06T00:53:37;10.40;;;6.72;;
31043;SDS011;17710;52.520;13.352;2023-08-06T00:56:04;8.70;;;6.85;;
31043;SDS011;17710;52.520;13.352;2023-08-06T00:58:31;11.40;;;6.78;;
31043;SDS011;17710;52.520;13.352;2023-08-06T01:00:59;8.77;;;6.45;;
31043;SDS011;17710;52.520;13.352;2023-08-06T01:03:25;7.35;;;6.20;;
31043;SDS011;17710;52.520;13.352;2023-08-06T01:05:52;7.72;;;6.63;;
31043;SDS011;17710;52.520;13.352;2023-08-06T01:08:25;9.57;;;7.00;;
31043;SDS011;17710;52.520;13.352;2023-08-06T01:11:01;7.57;;;5.78;;
31043;SDS011;17710;52.520;13.352;2023-08-06T01:13:37;8.33;;;6.93;;
31043;SDS011;17710;52.520;13.352;2023-08-06T01:16:10;6.40;;;5.80;;
31043;SDS011;17710;52.520;13.352;2023-08-06T01:18:37;7.57;;;5.85;;
31043;SDS011;17710;52.520;13.352;2023-08-06T01:21:06;9.27;;;5.90;;
31043;SDS011;17710;52.520;13.352;2023-08-06T01:23:32;7.50;;;6.30;;
31043;SDS011;17710;52.520;13.352;2023-08-06T01:26:01;6.68;;;5.97;;
31043;SDS011;17710;52.520;13.352;2023-08-06T01:28:39;8.38;;;6.40;;
31043;SDS011;17710;52.520;13.352;2023-08-06T01:31:10;7.68;;;5.93;;
31043;SDS011;17710;52.520;13.352;2023-08-06T01:33:44;8.70;;;6.30;;
31043;SDS011;17710;52.520;13.352;2023-08-06T01:36:14;10.05;;;6.50;;
31043;SDS011;17710;52.520;13.352;2023-08-06T01:38:42;6.70;;;6.00;;
31043;SDS011;17710;52.520;13.352;2023-08-06T01:41:09;7.53;;;6.03;;
31043;SDS011;17710;52.520;13.352;2023-08-06T01:43:35;7.53;;;6.70;;
31043;SDS011;17710;52.520;13.352;2023-08-06T01:46:01;7.35;;;5.88;;
31043;SDS011;17710;52.520;13.352;2023-08-06T01:48:28;6.78;;;6.18;;
31043;SDS011;17710;52.520;13.352;2023-08-06T01:50:54;7.07;;;5.90;;
31043;SDS011;17710;52.520;13.352;2023-08-06T01:53:22;7.15;;;5.63;;
31043;SDS011;17710;52.520;13.352;2023-08-06T01:55:48;6.60;;;5.97;;
31043;SDS011;17710;52.520;13.352;2023-08-06T01:58:15;7.28;;;5.97;;
31043;SDS011;17710;52.520;13.352;2023-08-06T02:00:41;6.43;;;5.70;;
31043;SDS011;17710;52.520;13.352;2023-08-06T02:03:08;10.18;;;5.68;;
31043;SDS011;17710;52.520;13.352;2023-08-06T02:05:34;7.75;;;6.05;;
31043;SDS011;17710;52.520;13.352;2023-08-06T02:08:00;6.53;;;5.80;;
31043;SDS011;17710;52.520;13.352;2023-08-06T02:10:28;7.70;;;6.00;;
31043;SDS011;17710;52.520;13.352;2023-08-06T02:12:54;6.93;;;6.10;;
31043;SDS011;17710;52.520;13.352;2023-08-06T02:15:21;6.90;;;6.10;;
31043;SDS011;17710;52.520;13.352;2023-08-06T02:17:47;6.75;;;6.05;;
31043;SDS011;17710;52.520;13.352;2023-08-06T02:20:14;7.90;;;6.10;;
31043;SDS011;17710;52.520;13.352;2023-08-06T02:22:40;7.72;;;6.45;;
31043;SDS011;17710;52.520;13.352;2023-08-06T02:25:07;7.22;;;6.53;;
31043;SDS011;17710;52.520;13.352;2023-08-06T02:27:35;8.07;;;6.75;;
31043;SDS011;17710;52.520;13.352;2023-08-06T02:30:04;9.27;;;7.07;;
31043;SDS011;17710;52.520;13.352;2023-08-06T02:32:31;7.72;;;6.35;;
31043;SDS011;17710;52.520;13.352;2023-08-06T02:35:00;8.65;;;6.50;;
31043;SDS011;17710;52.520;13.352;2023-08-06T02:37:27;7.07;;;6.35;;
31043;SDS011;17710;52.520;13.352;2023-08-06T02:39:53;9.75;;;6.63;;
31043;SDS011;17710;52.520;13.352;2023-08-06T02:42:19;9.27;;;6.55;;
31043;SDS011;17710;52.520;13.352;2023-08-06T02:44:47;7.65;;;6.68;;
31043;SDS011;17710;52.520;13.352;2023-08-06T02:47:14;8.95;;;7.32;;
31043;SDS011;17710;52.520;13.352;2023-08-06T02:49:40;8.35;;;6.63;;
31043;SDS011;17710;52.520;13.352;2023-08-06T02:52:07;9.68;;;7.40;;
31043;SDS011;17710;52.520;13.352;2023-08-06T02:54:34;8.85;;;7.32;;
31043;SDS011;17710;52.520;13.352;2023-08-06T02:57:00;7.88;;;6.68;;
31043;SDS011;17710;52.520;13.352;2023-08-06T02:59:27;9.20;;;6.78;;
31043;SDS011;17710;52.520;13.352;2023-08-06T03:01:54;8.48;;;7.47;;
31043;SDS011;17710;52.520;13.352;2023-08-06T03:04:21;9.05;;;7.07;;
31043;SDS011;17710;52.520;13.352;2023-08-06T03:06:48;7.53;;;6.82;;
31043;SDS011;17710;52.520;13.352;2023-08-06T03:09:15;8.57;;;6.50;;
31043;SDS011;17710;52.520;13.352;2023-08-06T03:11:41;7.65;;;6.88;;
31043;SDS011;17710;52.520;13.352;2023-08-06T03:14:08;7.63;;;6.80;;
31043;SDS011;17710;52.520;13.352;2023-08-06T03:16:34;7.65;;;6.72;;
31043;SDS011;17710;52.520;13.352;2023-08-06T03:19:02;9.32;;;7.18;;
31043;SDS011;17710;52.520;13.352;2023-08-06T03:21:30;7.80;;;6.55;;
31043;SDS011;17710;52.520;13.352;2023-08-06T03:23:56;7.57;;;6.35;;
31043;SDS011;17710;52.520;13.352;2023-08-06T03:26:23;8.77;;;7.18;;
31043;SDS011;17710;52.520;13.352;2023-08-06T03:28:49;8.10;;;7.25;;
31043;SDS011;17710;52.520;13.352;2023-08-06T03:31:15;8.95;;;7.35;;
31043;SDS011;17710;52.520;13.352;2023-08-06T03:33:42;7.60;;;6.85;;
31043;SDS011;17710;52.520;13.352;2023-08-06T03:36:09;9.43;;;7.47;;
31043;SDS011;17710;52.520;13.352;2023-08-06T03:38:36;9.98;;;7.63;;
31043;SDS011;17710;52.520;13.352;2023-08-06T03:41:02;8.07;;;7.00;;
31043;SDS011;17710;52.520;13.352;2023-08-06T03:45:54;8.77;;;6.95;;
31043;SDS011;17710;52.520;13.352;2023-08-06T03:48:20;8.38;;;6.65;;
31043;SDS011;17710;52.520;13.352;2023-08-06T03:50:47;8.23;;;7.35;;
31043;SDS011;17710;52.520;13.352;2023-08-06T03:53:14;9.52;;;7.25;;
31043;SDS011;17710;52.520;13.352;2023-08-06T03:55:41;7.07;;;6.22;;
31043;SDS011;17710;52.520;13.352;2023-08-06T03:58:08;8.20;;;6.53;;
31043;SDS011;17710;52.520;13.352;2023-08-06T04:00:34;7.78;;;6.50;;
31043;SDS011;17710;52.520;13.352;2023-08-06T04:03:00;8.63;;;6.05;;
31043;SDS011;17710;52.520;13.352;2023-08-06T04:05:27;9.02;;;6.50;;
31043;SDS011;17710;52.520;13.352;2023-08-06T04:07:53;8.90;;;6.00;;
31043;SDS011;17710;52.520;13.352;2023-08-06T04:10:21;8.18;;;6.53;;
31043;SDS011;17710;52.520;13.352;2023-08-06T04:12:47;6.45;;;5.85;;
31043;SDS011;17710;52.520;13.352;2023-08-06T04:15:14;7.85;;;5.85;;
31043;SDS011;17710;52.520;13.352;2023-08-06T04:17:40;6.28;;;5.47;;
31043;SDS011;17710;52.520;13.352;2023-08-06T04:20:07;6.38;;;5.78;;
31043;SDS011;17710;52.520;13.352;2023-08-06T04:22:34;6.97;;;6.03;;
31043;SDS011;17710;52.520;13.352;2023-08-06T04:25:00;6.53;;;5.85;;
31043;SDS011;17710;52.520;13.352;2023-08-06T04:27:28;7.40;;;6.35;;
31043;SDS011;17710;52.520;13.352;2023-08-06T04:29:55;7.68;;;6.20;;
31043;SDS011;17710;52.520;13.352;2023-08-06T04:32:21;6.93;;;5.65;;
31043;SDS011;17710;52.520;13.352;2023-08-06T04:34:48;6.40;;;5.75;;
31043;SDS011;17710;52.520;13.352;2023-08-06T04:37:14;10.50;;;4.50;;
31043;SDS011;17710;52.520;13.352;2023-08-06T04:39:40;6.43;;;4.20;;
31043;SDS011;17710;52.520;13.352;2023-08-06T04:42:07;5.15;;;4.75;;
31043;SDS011;17710;52.520;13.352;2023-08-06T04:44:35;5.70;;;4.18;;
31043;SDS011;17710;52.520;13.352;2023-08-06T04:47:01;5.20;;;4.45;;
31043;SDS011;17710;52.520;13.352;2023-08-06T04:49:28;6.32;;;4.90;;
31043;SDS011;17710;52.520;13.352;2023-08-06T04:51:54;6.43;;;5.00;;
31043;SDS011;17710;52.520;13.352;2023-08-06T04:54:20;6.28;;;4.43;;
31043;SDS011;17710;52.520;13.352;2023-08-06T04:56:47;5.57;;;4.57;;
31043;SDS011;17710;52.520;13.352;2023-08-06T04:59:13;6.18;;;5.18;;
31043;SDS011;17710;52.520;13.352;2023-08-06T05:01:41;7.35;;;5.15;;
31043;SDS011;17710;52.520;13.352;2023-08-06T05:04:07;4.72;;;4.18;;
31043;SDS011;17710;52.520;13.352;2023-08-06T05:06:34;7.30;;;4.57;;
31043;SDS011;17710;52.520;13.352;2023-08-06T05:09:03;5.47;;;4.65;;
31043;SDS011;17710;52.520;13.352;2023-08-06T05:11:29;4.65;;;4.03;;
31043;SDS011;17710;52.520;13.352;2023-08-06T05:13:56;6.72;;;5.03;;
31043;SDS011;17710;52.520;13.352;2023-08-06T05:16:23;5.22;;;4.70;;
31043;SDS011;17710;52.520;13.352;2023-08-06T05:18:51;6.18;;;4.75;;
31043;SDS011;17710;52.520;13.352;2023-08-06T05:21:17;5.35;;;4.85;;
31043;SDS011;17710;52.520;13.352;2023-08-06T05:23:44;9.32;;;4.15;;
31043;SDS011;17710;52.520;13.352;2023-08-06T05:26:10;6.47;;;4.45;;
31043;SDS011;17710;52.520;13.352;2023-08-06T05:28:36;5.03;;;4.35;;
31043;SDS011;17710;52.520;13.352;2023-08-06T05:31:03;5.10;;;4.60;;
31043;SDS011;17710;52.520;13.352;2023-08-06T05:33:30;5.53;;;3.85;;
31043;SDS011;17710;52.520;13.352;2023-08-06T05:35:57;6.00;;;4.88;;
31043;SDS011;17710;52.520;13.352;2023-08-06T05:38:24;5.50;;;4.78;;
31043;SDS011;17710;52.520;13.352;2023-08-06T05:40:50;4.43;;;4.03;;
31043;SDS011;17710;52.520;13.352;2023-08-06T05:43:17;4.75;;;4.30;;
31043;SDS011;17710;52.520;13.352;2023-08-06T05:45:44;4.60;;;4.20;;
31043;SDS011;17710;52.520;13.352;2023-08-06T05:48:10;6.00;;;4.28;;
31043;SDS011;17710;52.520;13.352;2023-08-06T05:50:37;5.57;;;4.93;;
31043;SDS011;17710;52.520;13.352;2023-08-06T05:53:04;7.25;;;5.05;;
31043;SDS011;17710;52.520;13.352;2023-08-06T05:55:31;5.18;;;4.40;;
31043;SDS011;17710;52.520;13.352;2023-08-06T05:57:57;5.25;;;4.50;;
31043;SDS011;17710;52.520;13.352;2023-08-06T06:00:24;5.70;;;4.05;;
31043;SDS011;17710;52.520;13.352;2023-08-06T06:02:50;7.60;;;4.68;;
31043;SDS011;17710;52.520;13.352;2023-08-06T06:05:17;4.78;;;4.38;;
31043;SDS011;17710;52.520;13.352;2023-08-06T06:07:43;6.13;;;4.80;;
31043;SDS011;17710;52.520;13.352;2023-08-06T06:10:11;5.63;;;4.15;;
31043;SDS011;17710;52.520;13.352;2023-08-06T06:12:38;7.18;;;4.60;;
31043;SDS011;17710;52.520;13.352;2023-08-06T06:15:05;7.30;;;4.82;;
31043;SDS011;17710;52.520;13.352;2023-08-06T06:17:32;4.97;;;4.47;;
31043;SDS011;17710;52.520;13.352;2023-08-06T06:19:58;4.72;;;4.20;;
31043;SDS011;17710;52.520;13.352;2023-08-06T06:22:24;5.97;;;4.22;;
31043;SDS011;17710;52.520;13.352;2023-08-06T06:24:51;4.75;;;4.35;;
31043;SDS011;17710;52.520;13.352;2023-08-06T06:27:18;5.20;;;4.70;;
31043;SDS011;17710;52.520;13.352;2023-08-06T06:29:45;5.70;;;4.97;;
31043;SDS011;17710;52.520;13.352;2023-08-06T06:32:11;6.45;;;4.78;;
31043;SDS011;17710;52.520;13.352;2023-08-06T06:34:38;6.50;;;4.30;;
31043;SDS011;17710;52.520;13.352;2023-08-06T06:37:04;4.75;;;4.30;;
31043;SDS011;17710;52.520;13.352;2023-08-06T06:39:31;5.40;;;4.40;;
31043;SDS011;17710;52.520;13.352;2023-08-06T06:41:57;6.75;;;4.80;;
31043;SDS011;17710;52.520;13.352;2023-08-06T06:44:25;5.50;;;4.70;;
31043;SDS011;17710;52.520;13.352;2023-08-06T06:46:51;6.28;;;4.75;;
31043;SDS011;17710;52.520;13.352;2023-08-06T06:49:18;5.75;;;4.63;;
31043;SDS011;17710;52.520;13.352;2023-08-06T06:51:44;6.70;;;4.72;;
31043;SDS011;17710;52.520;13.352;2023-08-06T06:54:11;4.70;;;4.30;;
31043;SDS011;17710;52.520;13.352;2023-08-06T06:56:37;6.78;;;4.80;;
31043;SDS011;17710;52.520;13.352;2023-08-06T06:59:04;4.93;;;4.25;;
31043;SDS011;17710;52.520;13.352;2023-08-06T07:01:31;6.43;;;4.82;;
31043;SDS011;17710;52.520;13.352;2023-08-06T07:03:58;5.65;;;5.10;;
31043;SDS011;17710;52.520;13.352;2023-08-06T07:06:29;5.85;;;4.57;;
31043;SDS011;17710;52.520;13.352;2023-08-06T07:08:56;7.45;;;4.50;;
31043;SDS011;17710;52.520;13.352;2023-08-06T07:11:22;5.72;;;4.97;;
31043;SDS011;17710;52.520;13.352;2023-08-06T07:13:49;7.32;;;4.65;;
31043;SDS011;17710;52.520;13.352;2023-08-06T07:16:21;5.43;;;4.93;;
31043;SDS011;17710;52.520;13.352;2023-08-06T07:18:50;6.95;;;5.07;;
31043;SDS011;17710;52.520;13.352;2023-08-06T07:21:17;6.07;;;4.85;;
31043;SDS011;17710;52.520;13.352;2023-08-06T07:23:43;5.25;;;4.75;;
31043;SDS011;17710;52.520;13.352;2023-08-06T07:26:10;5.15;;;4.53;;
31043;SDS011;17710;52.520;13.352;2023-08-06T07:28:36;5.15;;;4.57;;
31043;SDS011;17710;52.520;13.352;2023-08-06T07:31:03;5.10;;;4.40;;
31043;SDS011;17710;52.520;13.352;2023-08-06T07:33:30;7.38;;;5.20;;
31043;SDS011;17710;52.520;13.352;2023-08-06T07:35:58;4.63;;;4.20;;
31043;SDS011;17710;52.520;13.352;2023-08-06T07:38:25;5.05;;;4.55;;
31043;SDS011;17710;52.520;13.352;2023-08-06T07:40:53;5.68;;;5.03;;
31043;SDS011;17710;52.520;13.352;2023-08-06T07:43:19;4.97;;;4.47;;
31043;SDS011;17710;52.520;13.352;2023-08-06T07:45:45;5.45;;;4.65;;
31043;SDS011;17710;52.520;13.352;2023-08-06T07:48:12;5.22;;;4.68;;
31043;SDS011;17710;52.520;13.352;2023-08-06T07:50:38;5.65;;;4.95;;
31043;SDS011;17710;52.520;13.352;2023-08-06T07:53:06;4.95;;;4.38;;
31043;SDS011;17710;52.520;13.352;2023-08-06T07:55:33;7.43;;;4.88;;
31043;SDS011;17710;52.520;13.352;2023-08-06T07:57:59;5.60;;;5.10;;
31043;SDS011;17710;52.520;13.352;2023-08-06T08:00:26;5.55;;;4.97;;
31043;SDS011;17710;52.520;13.352;2023-08-06T08:02:52;6.07;;;5.10;;
31043;SDS011;17710;52.520;13.352;2023-08-06T08:05:18;5.32;;;4.85;;
31043;SDS011;17710;52.520;13.352;2023-08-06T08:07:45;6.18;;;5.30;;
31043;SDS011;17710;52.520;13.352;2023-08-06T08:10:13;6.25;;;5.10;;
31043;SDS011;17710;52.520;13.352;2023-08-06T08:12:40;7.80;;;6.47;;
31043;SDS011;17710;52.520;13.352;2023-08-06T08:15:06;6.93;;;6.20;;
31043;SDS011;17710;52.520;13.352;2023-08-06T08:17:33;7.80;;;6.90;;
31043;SDS011;17710;52.520;13.352;2023-08-06T08:19:59;10.10;;;7.50;;
31043;SDS011;17710;52.520;13.352;2023-08-06T08:22:26;8.00;;;7.20;;
31043;SDS011;17710;52.520;13.352;2023-08-06T08:24:52;8.43;;;7.30;;
31043;SDS011;17710;52.520;13.352;2023-08-06T08:27:20;9.38;;;8.10;;
31043;SDS011;17710;52.520;13.352;2023-08-06T08:29:46;9.35;;;8.30;;
31043;SDS011;17710;52.520;13.352;2023-08-06T08:32:13;18.52;;;8.65;;
31043;SDS011;17710;52.520;13.352;2023-08-06T08:34:39;10.77;;;9.57;;
31043;SDS011;17710;52.520;13.352;2023-08-06T08:37:06;11.05;;;8.93;;
31043;SDS011;17710;52.520;13.352;2023-08-06T08:39:32;9.30;;;8.27;;
31043;SDS011;17710;52.520;13.352;2023-08-06T08:41:59;11.82;;;8.60;;
31043;SDS011;17710;52.520;13.352;2023-08-06T08:44:27;10.35;;;8.52;;
31043;SDS011;17710;52.520;13.352;2023-08-06T08:46:54;8.55;;;7.75;;
31043;SDS011;17710;52.520;13.352;2023-08-06T08:49:21;11.13;;;9.85;;
31043;SDS011;17710;52.520;13.352;2023-08-06T08:51:50;9.98;;;8.98;;
31043;SDS011;17710;52.520;13.352;2023-08-06T08:54:18;10.55;;;8.43;;
31043;SDS011;17710;52.520;13.352;2023-08-06T08:56:48;11.93;;;8.52;;
31043;SDS011;17710;52.520;13.352;2023-08-06T08:59:15;12.10;;;9.40;;
31043;SDS011;17710;52.520;13.352;2023-08-06T09:01:43;9.65;;;8.73;;
31043;SDS011;17710;52.520;13.352;2023-08-06T09:04:15;10.02;;;8.20;;
31043;SDS011;17710;52.520;13.352;2023-08-06T09:06:42;9.77;;;8.77;;
31043;SDS011;17710;52.520;13.352;2023-08-06T09:09:12;10.02;;;9.02;;
31043;SDS011;17710;52.520;13.352;2023-08-06T09:11:42;9.27;;;8.38;;
31043;SDS011;17710;52.520;13.352;2023-08-06T09:14:10;9.43;;;8.40;;
31043;SDS011;17710;52.520;13.352;2023-08-06T09:16:37;11.60;;;9.02;;
31043;SDS011;17710;52.520;13.352;2023-08-06T09:19:08;10.18;;;8.50;;
31043;SDS011;17710;52.520;13.352;2023-08-06T09:21:36;11.43;;;9.05;;
31043;SDS011;17710;52.520;13.352;2023-08-06T09:24:07;9.65;;;8.68;;
31043;SDS011;17710;52.520;13.352;2023-08-06T09:26:34;11.55;;;8.93;;
31043;SDS011;17710;52.520;13.352;2023-08-06T09:29:00;10.57;;;8.63;;
31043;SDS011;17710;52.520;13.352;2023-08-06T09:31:32;11.35;;;8.93;;
31043;SDS011;17710;52.520;13.352;2023-08-06T09:33:59;9.90;;;8.70;;
31043;SDS011;17710;52.520;13.352;2023-08-06T09:36:27;10.40;;;8.38;;
31043;SDS011;17710;52.520;13.352;2023-08-06T09:38:53;12.38;;;8.40;;
31043;SDS011;17710;52.520;13.352;2023-08-06T09:41:25;9.55;;;8.55;;
31043;SDS011;17710;52.520;13.352;2023-08-06T09:43:53;9.85;;;8.65;;
31043;SDS011;17710;52.520;13.352;2023-08-06T09:46:19;8.45;;;7.47;;
31043;SDS011;17710;52.520;13.352;2023-08-06T09:48:47;10.43;;;8.77;;
31043;SDS011;17710;52.520;13.352;2023-08-06T09:51:13;10.95;;;9.57;;
31043;SDS011;17710;52.520;13.352;2023-08-06T09:53:41;9.65;;;8.63;;
31043;SDS011;17710;52.520;13.352;2023-08-06T09:56:09;9.38;;;8.43;;
31043;SDS011;17710;52.520;13.352;2023-08-06T09:58:36;10.90;;;8.60;;
31043;SDS011;17710;52.520;13.352;2023-08-06T10:01:04;9.18;;;8.20;;
31043;SDS011;17710;52.520;13.352;2023-08-06T10:03:31;9.48;;;8.50;;
31043;SDS011;17710;52.520;13.352;2023-08-06T10:05:59;14.15;;;11.23;;
31043;SDS011;17710;52.520;13.352;2023-08-06T10:08:31;11.50;;;9.05;;
31043;SDS011;17710;52.520;13.352;2023-08-06T10:10:58;11.38;;;8.93;;
31043;SDS011;17710;52.520;13.352;2023-08-06T10:13:27;10.27;;;8.48;;
31043;SDS011;17710;52.520;13.352;2023-08-06T10:15:54;9.98;;;8.27;;
31043;SDS011;17710;52.520;13.352;2023-08-06T10:18:20;9.90;;;8.90;;
31043;SDS011;17710;52.520;13.352;2023-08-06T10:20:47;10.32;;;9.30;;
31043;SDS011;17710;52.520;13.352;2023-08-06T10:23:14;11.02;;;9.35;;
31043;SDS011;17710;52.520;13.352;2023-08-06T10:25:41;11.02;;;9.93;;
31043;SDS011;17710;52.520;13.352;2023-08-06T10:28:09;12.15;;;9.80;;
31043;SDS011;17710;52.520;13.352;2023-08-06T10:30:41;11.73;;;10.50;;
31043;SDS011;17710;52.520;13.352;2023-08-06T10:33:09;11.45;;;10.10;;
31043;SDS011;17710;52.520;13.352;2023-08-06T10:35:36;10.93;;;9.50;;
31043;SDS011;17710;52.520;13.352;2023-08-06T10:38:04;13.60;;;11.00;;
31043;SDS011;17710;52.520;13.352;2023-08-06T10:40:33;12.13;;;10.27;;
31043;SDS011;17710;52.520;13.352;2023-08-06T10:43:00;11.40;;;9.93;;
31043;SDS011;17710;52.520;13.352;2023-08-06T10:45:28;11.23;;;10.10;;
31043;SDS011;17710;52.520;13.352;2023-08-06T10:47:55;11.98;;;10.75;;
31043;SDS011;17710;52.520;13.352;2023-08-06T10:50:23;11.18;;;9.98;;
31043;SDS011;17710;52.520;13.352;2023-08-06T10:52:50;9.27;;;8.10;;
31043;SDS011;17710;52.520;13.352;2023-08-06T10:55:23;8.55;;;7.68;;
31043;SDS011;17710;52.520;13.352;2023-08-06T10:57:50;10.68;;;7.70;;
31043;SDS011;17710;52.520;13.352;2023-08-06T11:00:17;8.63;;;7.60;;
31043;SDS011;17710;52.520;13.352;2023-08-06T11:02:44;7.47;;;6.78;;
31043;SDS011;17710;52.520;13.352;2023-08-06T11:05:12;10.73;;;8.13;;
31043;SDS011;17710;52.520;13.352;2023-08-06T11:07:39;11.32;;;8.25;;
31043;SDS011;17710;52.520;13.352;2023-08-06T11:10:06;10.25;;;8.05;;
31043;SDS011;17710;52.520;13.352;2023-08-06T11:12:33;13.10;;;8.73;;
31043;SDS011;17710;52.520;13.352;2023-08-06T11:15:01;8.63;;;7.75;;
31043;SDS011;17710;52.520;13.352;2023-08-06T11:17:29;8.85;;;8.02;;
31043;SDS011;17710;52.520;13.352;2023-08-06T11:19:59;10.25;;;8.15;;
31043;SDS011;17710;52.520;13.352;2023-08-06T11:22:27;11.27;;;8.82;;
31043;SDS011;17710;52.520;13.352;2023-08-06T11:24:53;10.70;;;8.73;;
31043;SDS011;17710;52.520;13.352;2023-08-06T11:27:21;12.45;;;11.15;;
31043;SDS011;17710;52.520;13.352;2023-08-06T11:29:48;9.70;;;8.70;;
31043;SDS011;17710;52.520;13.352;2023-08-06T11:32:14;9.63;;;7.10;;
31043;SDS011;17710;52.520;13.352;2023-08-06T11:34:41;7.03;;;5.50;;
31043;SDS011;17710;52.520;13.352;2023-08-06T11:37:10;5.18;;;4.68;;
31043;SDS011;17710;52.520;13.352;2023-08-06T11:39:37;5.47;;;4.53;;
31043;SDS011;17710;52.520;13.352;2023-08-06T11:42:04;6.07;;;4.18;;
31043;SDS011;17710;52.520;13.352;2023-08-06T11:44:33;7.88;;;5.95;;
31043;SDS011;17710;52.520;13.352;2023-08-06T11:47:02;5.45;;;4.95;;
31043;SDS011;17710;52.520;13.352;2023-08-06T11:49:37;5.05;;;4.55;;
31043;SDS011;17710;52.520;13.352;2023-08-06T11:52:10;7.05;;;5.63;;
31043;SDS011;17710;52.520;13.352;2023-08-06T11:54:39;9.07;;;6.88;;
31043;SDS011;17710;52.520;13.352;2023-08-06T11:57:05;8.15;;;6.90;;
31043;SDS011;17710;52.520;13.352;2023-08-06T11:59:32;6.03;;;5.53;;
31043;SDS011;17710;52.520;13.352;2023-08-06T12:01:59;9.10;;;5.85;;
31043;SDS011;17710;52.520;13.352;2023-08-06T12:04:26;8.00;;;6.32;;
31043;SDS011;17710;52.520;13.352;2023-08-06T12:06:52;8.38;;;6.18;;
31043;SDS011;17710;52.520;13.352;2023-08-06T12:09:20;7.53;;;6.15;;
31043;SDS011;17710;52.520;13.352;2023-08-06T12:11:46;9.95;;;6.25;;
31043;SDS011;17710;52.520;13.352;2023-08-06T12:14:13;7.57;;;6.88;;
31043;SDS011;17710;52.520;13.352;2023-08-06T12:16:39;8.07;;;6.40;;
31043;SDS011;17710;52.520;13.352;2023-08-06T12:19:06;9.05;;;7.43;;
31043;SDS011;17710;52.520;13.352;2023-08-06T12:21:32;7.13;;;6.47;;
31043;SDS011;17710;52.520;13.352;2023-08-06T12:23:58;9.90;;;7.63;;
31043;SDS011;17710;52.520;13.352;2023-08-06T12:26:26;7.75;;;6.90;;
31043;SDS011;17710;52.520;13.352;2023-08-06T12:28:52;12.77;;;7.95;;
31043;SDS011;17710;52.520;13.352;2023-08-06T12:31:20;10.70;;;8.77;;
31043;SDS011;17710;52.520;13.352;2023-08-06T12:33:46;11.70;;;9.00;;
31043;SDS011;17710;52.520;13.352;2023-08-06T12:36:13;9.20;;;8.23;;
31043;SDS011;17710;52.520;13.352;2023-08-06T12:38:39;11.02;;;8.85;;
31043;SDS011;17710;52.520;13.352;2023-08-06T12:41:05;14.13;;;8.13;;
31043;SDS011;17710;52.520;13.352;2023-08-06T12:43:33;10.05;;;8.27;;
31043;SDS011;17710;52.520;13.352;2023-08-06T12:45:59;12.23;;;8.10;;
31043;SDS011;17710;52.520;13.352;2023-08-06T12:48:26;9.38;;;8.32;;
31043;SDS011;17710;52.520;13.352;2023-08-06T12:50:52;9.13;;;7.75;;
31043;SDS011;17710;52.520;13.352;2023-08-06T12:53:18;9.38;;;7.47;;
31043;SDS011;17710;52.520;13.352;2023-08-06T12:55:48;11.57;;;7.90;;
31043;SDS011;17710;52.520;13.352;2023-08-06T12:58:14;8.85;;;7.90;;
31043;SDS011;17710;52.520;13.352;2023-08-06T13:00:42;8.18;;;7.32;;
31043;SDS011;17710;52.520;13.352;2023-08-06T13:03:08;10.30;;;7.68;;
31043;SDS011;17710;52.520;13.352;2023-08-06T13:05:35;7.85;;;7.05;;
31043;SDS011;17710;52.520;13.352;2023-08-06T13:08:02;8.50;;;7.60;;
31043;SDS011;17710;52.520;13.352;2023-08-06T13:10:28;10.98;;;8.68;;
31043;SDS011;17710;52.520;13.352;2023-08-06T13:12:56;8.80;;;7.90;;
31043;SDS011;17710;52.520;13.352;2023-08-06T13:15:22;9.30;;;7.22;;
31043;SDS011;17710;52.520;13.352;2023-08-06T13:17:50;14.90;;;8.23;;
31043;SDS011;17710;52.520;13.352;2023-08-06T13:20:18;8.98;;;6.78;;
31043;SDS011;17710;52.520;13.352;2023-08-06T13:22:45;14.05;;;10.75;;
31043;SDS011;17710;52.520;13.352;2023-08-06T13:25:15;12.25;;;9.60;;
31043;SDS011;17710;52.520;13.352;2023-08-06T13:27:42;10.00;;;8.68;;
31043;SDS011;17710;52.520;13.352;2023-08-06T13:30:09;11.05;;;9.23;;
31043;SDS011;17710;52.520;13.352;2023-08-06T13:32:36;9.27;;;7.85;;
31043;SDS011;17710;52.520;13.352;2023-08-06T13:35:04;9.65;;;7.95;;
31043;SDS011;17710;52.520;13.352;2023-08-06T13:37:31;10.52;;;8.63;;
31043;SDS011;17710;52.520;13.352;2023-08-06T13:39:57;10.68;;;8.50;;
31043;SDS011;17710;52.520;13.352;2023-08-06T13:42:24;9.10;;;8.00;;
31043;SDS011;17710;52.520;13.352;2023-08-06T13:44:50;12.85;;;8.25;;
31043;SDS011;17710;52.520;13.352;2023-08-06T13:47:16;13.18;;;8.35;;
31043;SDS011;17710;52.520;13.352;2023-08-06T13:49:43;8.90;;;7.82;;
31043;SDS011;17710;52.520;13.352;2023-08-06T13:52:10;11.15;;;8.73;;
31043;SDS011;17710;52.520;13.352;2023-08-06T13:54:37;13.02;;;9.68;;
31043;SDS011;17710;52.520;13.352;2023-08-06T13:57:03;10.48;;;8.10;;
31043;SDS011;17710;52.520;13.352;2023-08-06T13:59:29;11.82;;;8.13;;
31043;SDS011;17710;52.520;13.352;2023-08-06T14:01:56;8.80;;;7.90;;
31043;SDS011;17710;52.520;13.352;2023-08-06T14:04:24;14.77;;;9.60;;
31043;SDS011;17710;52.520;13.352;2023-08-06T14:06:51;14.73;;;8.95;;
31043;SDS011;17710;52.520;13.352;2023-08-06T14:09:18;12.60;;;8.45;;
31043;SDS011;17710;52.520;13.352;2023-08-06T14:11:45;12.32;;;8.60;;
31043;SDS011;17710;52.520;13.352;2023-08-06T14:14:12;14.52;;;8.60;;
31043;SDS011;17710;52.520;13.352;2023-08-06T14:16:38;11.35;;;8.50;;
31043;SDS011;17710;52.520;13.352;2023-08-06T14:19:05;12.38;;;8.52;;
31043;SDS011;17710;52.520;13.352;2023-08-06T14:21:31;9.77;;;7.93;;
31043;SDS011;17710;52.520;13.352;2023-08-06T14:23:58;11.48;;;6.95;;
31043;SDS011;17710;52.520;13.352;2023-08-06T14:26:26;15.30;;;9.77;;
31043;SDS011;17710;52.520;13.352;2023-08-06T14:28:52;13.50;;;8.88;;
31043;SDS011;17710;52.520;13.352;2023-08-06T14:31:19;10.00;;;7.78;;
31043;SDS011;17710;52.520;13.352;2023-08-06T14:33:48;8.82;;;6.57;;